sensor_id;sensor_type;location;lat;lon;timestamp;pressure;altitude;pressure_sealevel;temperature;humidity
65666;BME280;52365;47.464;18.976;2023-02-22T00:00:31;99777.81;;;12.65;53.43
65666;BME280;52365;47.464;18.976;2023-02-22T00:01:17;99782.44;;;12.64;53.26
65666;BME280;52365;47.464;18.976;2023-02-22T00:02:22;99776.75;;;12.32;54.33
65666;BME280;52365;47.464;18.976;2023-02-22T00:03:03;99780.87;;;12.87;52.59
65666;BME280;52365;47.464;18.976;2023-02-22T00:03:39;99777.03;;;12.64;52.64
65666;BME280;52365;47.464;18.976;2023-02-22T00:04:16;99775.38;;;12.52;53.03
65666;BME280;52365;47.464;18.976;2023-02-22T00:04:55;99780.13;;;12.72;52.42
65666;BME280;52365;47.464;18.976;2023-02-22T00:05:32;99778.81;;;12.67;52.18
65666;BME280;52365;47.464;18.976;2023-02-22T00:06:16;99787.53;;;12.03;53.55
65666;BME280;52365;47.464;18.976;2023-02-22T00:06:52;99772.41;;;11.48;55.53
65666;BME280;52365;47.464;18.976;2023-02-22T00:07:28;99784.75;;;11.40;56.08
65666;BME280;52365;47.464;18.976;2023-02-22T00:08:06;99783.69;;;11.47;56.18
65666;BME280;52365;47.464;18.976;2023-02-22T00:08:47;99783.31;;;11.54;55.62
65666;BME280;52365;47.464;18.976;2023-02-22T00:09:27;99783.62;;;11.56;55.42
65666;BME280;52365;47.464;18.976;2023-02-22T00:10:05;99786.38;;;11.47;55.81
65666;BME280;52365;47.464;18.976;2023-02-22T00:10:48;99783.62;;;11.56;55.67
65666;BME280;52365;47.464;18.976;2023-02-22T00:11:27;99775.84;;;11.25;56.58
65666;BME280;52365;47.464;18.976;2023-02-22T00:12:04;99786.97;;;11.18;56.82
65666;BME280;52365;47.464;18.976;2023-02-22T00:12:41;99786.31;;;11.23;56.57
65666;BME280;52365;47.464;18.976;2023-02-22T00:13:18;99786.47;;;10.86;57.51
65666;BME280;52365;47.464;18.976;2023-02-22T00:13:57;99786.78;;;10.79;58.03
65666;BME280;52365;47.464;18.976;2023-02-22T00:14:33;99782.91;;;10.80;57.97
65666;BME280;52365;47.464;18.976;2023-02-22T00:15:09;99777.53;;;10.71;58.48
65666;BME280;52365;47.464;18.976;2023-02-22T00:15:49;99783.94;;;10.82;58.13
65666;BME280;52365;47.464;18.976;2023-02-22T00:16:25;99784.09;;;11.21;57.29
65666;BME280;52365;47.464;18.976;2023-02-22T00:17:01;99781.41;;;11.21;56.76
65666;BME280;52365;47.464;18.976;2023-02-22T00:17:38;99779.06;;;11.05;57.09
65666;BME280;52365;47.464;18.976;2023-02-22T00:18:16;99784.97;;;11.27;56.71
65666;BME280;52365;47.464;18.976;2023-02-22T00:18:53;99783.00;;;11.28;56.64
65666;BME280;52365;47.464;18.976;2023-02-22T00:19:29;99771.81;;;11.20;56.68
65666;BME280;52365;47.464;18.976;2023-02-22T00:20:06;99782.97;;;11.04;57.04
65666;BME280;52365;47.464;18.976;2023-02-22T00:20:43;99787.13;;;11.14;56.90
65666;BME280;52365;47.464;18.976;2023-02-22T00:21:20;99791.25;;;10.91;57.52
65666;BME280;52365;47.464;18.976;2023-02-22T00:21:56;99786.66;;;10.73;58.36
65666;BME280;52365;47.464;18.976;2023-02-22T00:22:33;99786.72;;;10.55;58.90
65666;BME280;52365;47.464;18.976;2023-02-22T00:23:15;99791.53;;;10.32;59.84
65666;BME280;52365;47.464;18.976;2023-02-22T00:23:53;99782.22;;;10.52;59.62
65666;BME280;52365;47.464;18.976;2023-02-22T00:24:31;99785.50;;;10.47;59.63
65666;BME280;52365;47.464;18.976;2023-02-22T00:25:08;99786.13;;;10.32;59.99
65666;BME280;52365;47.464;18.976;2023-02-22T00:25:46;99785.09;;;10.30;60.05
65666;BME280;52365;47.464;18.976;2023-02-22T00:26:23;99780.56;;;10.64;59.54
65666;BME280;52365;47.464;18.976;2023-02-22T00:26:59;99792.34;;;10.84;58.35
65666;BME280;52365;47.464;18.976;2023-02-22T00:27:35;99791.91;;;10.68;58.75
65666;BME280;52365;47.464;18.976;2023-02-22T00:28:11;99789.41;;;10.55;59.05
65666;BME280;52365;47.464;18.976;2023-02-22T00:28:52;99777.59;;;10.43;59.60
65666;BME280;52365;47.464;18.976;2023-02-22T00:29:29;99788.22;;;10.38;59.86
65666;BME280;52365;47.464;18.976;2023-02-22T00:30:05;99789.84;;;10.07;60.45
65666;BME280;52365;47.464;18.976;2023-02-22T00:30:42;99793.28;;;10.08;60.97
65666;BME280;52365;47.464;18.976;2023-02-22T00:31:19;99790.31;;;10.06;60.91
65666;BME280;52365;47.464;18.976;2023-02-22T00:31:55;99789.72;;;10.02;61.22
65666;BME280;52365;47.464;18.976;2023-02-22T00:32:31;99787.00;;;10.11;60.99
65666;BME280;52365;47.464;18.976;2023-02-22T00:33:07;99791.50;;;10.14;60.88
65666;BME280;52365;47.464;18.976;2023-02-22T00:33:44;99792.41;;;10.11;61.13
65666;BME280;52365;47.464;18.976;2023-02-22T00:34:20;99795.84;;;10.12;61.02
65666;BME280;52365;47.464;18.976;2023-02-22T00:34:58;99793.28;;;10.08;61.06
65666;BME280;52365;47.464;18.976;2023-02-22T00:35:34;99796.25;;;9.82;61.72
65666;BME280;52365;47.464;18.976;2023-02-22T00:36:12;99802.56;;;9.79;62.19
65666;BME280;52365;47.464;18.976;2023-02-22T00:36:49;99802.09;;;9.99;61.72
65666;BME280;52365;47.464;18.976;2023-02-22T00:37:25;99803.03;;;10.05;61.35
65666;BME280;52365;47.464;18.976;2023-02-22T00:38:02;99795.53;;;9.91;61.67
65666;BME280;52365;47.464;18.976;2023-02-22T00:38:39;99798.94;;;9.73;62.17
65666;BME280;52365;47.464;18.976;2023-02-22T00:39:16;99801.63;;;9.73;62.50
65666;BME280;52365;47.464;18.976;2023-02-22T00:39:52;99800.75;;;9.76;62.41
65666;BME280;52365;47.464;18.976;2023-02-22T00:40:31;99796.25;;;9.73;62.44
65666;BME280;52365;47.464;18.976;2023-02-22T00:41:08;99796.44;;;9.88;62.34
65666;BME280;52365;47.464;18.976;2023-02-22T00:41:44;99795.69;;;10.06;61.61
65666;BME280;52365;47.464;18.976;2023-02-22T00:42:20;99800.91;;;9.82;62.15
65666;BME280;52365;47.464;18.976;2023-02-22T00:42:58;99800.44;;;9.74;62.46
65666;BME280;52365;47.464;18.976;2023-02-22T00:43:34;99799.53;;;9.77;62.42
65666;BME280;52365;47.464;18.976;2023-02-22T00:44:11;99804.63;;;9.75;62.64
65666;BME280;52365;47.464;18.976;2023-02-22T00:44:47;99797.59;;;9.78;62.37
65666;BME280;52365;47.464;18.976;2023-02-22T00:45:25;99797.91;;;9.71;62.61
65666;BME280;52365;47.464;18.976;2023-02-22T00:46:02;99800.56;;;9.62;62.86
65666;BME280;52365;47.464;18.976;2023-02-22T00:46:38;99795.34;;;9.58;62.96
65666;BME280;52365;47.464;18.976;2023-02-22T00:47:14;99799.34;;;9.53;63.12
65666;BME280;52365;47.464;18.976;2023-02-22T00:47:50;99793.53;;;9.55;63.10
65666;BME280;52365;47.464;18.976;2023-02-22T00:48:27;99799.94;;;9.48;63.19
65666;BME280;52365;47.464;18.976;2023-02-22T00:49:03;99790.97;;;9.51;63.44
65666;BME280;52365;47.464;18.976;2023-02-22T00:49:40;99796.22;;;9.55;63.24
65666;BME280;52365;47.464;18.976;2023-02-22T00:50:17;99795.16;;;9.52;63.13
65666;BME280;52365;47.464;18.976;2023-02-22T00:50:53;99798.31;;;9.60;63.12
65666;BME280;52365;47.464;18.976;2023-02-22T00:51:29;99790.56;;;9.62;62.95
65666;BME280;52365;47.464;18.976;2023-02-22T00:52:06;99794.13;;;9.50;63.08
65666;BME280;52365;47.464;18.976;2023-02-22T00:52:42;99801.88;;;9.48;63.30
65666;BME280;52365;47.464;18.976;2023-02-22T00:53:18;99796.78;;;9.41;63.62
65666;BME280;52365;47.464;18.976;2023-02-22T00:53:55;99796.22;;;9.55;63.25
65666;BME280;52365;47.464;18.976;2023-02-22T00:54:31;99796.81;;;9.50;63.26
65666;BME280;52365;47.464;18.976;2023-02-22T00:55:08;99790.84;;;9.55;63.20
65666;BME280;52365;47.464;18.976;2023-02-22T00:55:45;99794.00;;;9.72;62.73
65666;BME280;52365;47.464;18.976;2023-02-22T00:56:21;99796.25;;;9.82;62.32
65666;BME280;52365;47.464;18.976;2023-02-22T00:56:57;99798.34;;;9.78;62.16
65666;BME280;52365;47.464;18.976;2023-02-22T00:57:33;99805.53;;;9.72;62.26
65666;BME280;52365;47.464;18.976;2023-02-22T00:58:09;99792.94;;;9.69;62.51
65666;BME280;52365;47.464;18.976;2023-02-22T00:58:45;99800.28;;;9.78;62.30
65666;BME280;52365;47.464;18.976;2023-02-22T00:59:21;99796.84;;;9.77;62.20
65666;BME280;52365;47.464;18.976;2023-02-22T00:59:57;99791.47;;;9.68;62.59
65666;BME280;52365;47.464;18.976;2023-02-22T01:00:39;99789.09;;;9.70;62.73
65666;BME280;52365;47.464;18.976;2023-02-22T01:01:16;99795.50;;;9.64;62.62
65666;BME280;52365;47.464;18.976;2023-02-22T01:01:52;99791.31;;;9.63;62.74
65666;BME280;52365;47.464;18.976;2023-02-22T01:02:28;99794.28;;;9.65;62.78
65666;BME280;52365;47.464;18.976;2023-02-22T01:03:06;99797.72;;;9.65;62.79
65666;BME280;52365;47.464;18.976;2023-02-22T01:03:43;99792.06;;;9.72;62.73
65666;BME280;52365;47.464;18.976;2023-02-22T01:04:19;99787.87;;;9.71;62.55
65666;BME280;52365;47.464;18.976;2023-02-22T01:04:55;99789.09;;;9.70;62.53
65666;BME280;52365;47.464;18.976;2023-02-22T01:05:32;99789.66;;;9.65;62.64
65666;BME280;52365;47.464;18.976;2023-02-22T01:06:08;99794.91;;;9.69;62.61
65666;BME280;52365;47.464;18.976;2023-02-22T01:06:44;99790.81;;;9.46;63.16
65666;BME280;52365;47.464;18.976;2023-02-22T01:07:20;99785.28;;;9.40;63.58
65666;BME280;52365;47.464;18.976;2023-02-22T01:07:57;99783.34;;;9.50;63.29
65666;BME280;52365;47.464;18.976;2023-02-22T01:08:34;99786.66;;;9.54;63.11
65666;BME280;52365;47.464;18.976;2023-02-22T01:09:10;99790.19;;;9.42;63.28
65666;BME280;52365;47.464;18.976;2023-02-22T01:09:46;99792.19;;;9.59;63.17
65666;BME280;52365;47.464;18.976;2023-02-22T01:10:24;99787.13;;;9.71;62.46
65666;BME280;52365;47.464;18.976;2023-02-22T01:11:01;99780.53;;;9.53;62.76
65666;BME280;52365;47.464;18.976;2023-02-22T01:11:37;99782.59;;;9.49;62.96
65666;BME280;52365;47.464;18.976;2023-02-22T01:12:13;99786.28;;;9.33;63.51
65666;BME280;52365;47.464;18.976;2023-02-22T01:12:51;99778.84;;;9.38;63.72
65666;BME280;52365;47.464;18.976;2023-02-22T01:13:27;99783.00;;;9.39;63.70
65666;BME280;52365;47.464;18.976;2023-02-22T01:14:03;99776.28;;;9.34;63.68
65666;BME280;52365;47.464;18.976;2023-02-22T01:14:39;99787.22;;;9.40;63.75
65666;BME280;52365;47.464;18.976;2023-02-22T01:15:18;99785.72;;;9.48;63.50
65666;BME280;52365;47.464;18.976;2023-02-22T01:15:58;99784.72;;;9.73;62.93
65666;BME280;52365;47.464;18.976;2023-02-22T01:16:35;99790.66;;;9.40;62.70
65666;BME280;52365;47.464;18.976;2023-02-22T01:17:11;99789.66;;;9.16;63.76
65666;BME280;52365;47.464;18.976;2023-02-22T01:17:49;99787.69;;;9.07;64.33
65666;BME280;52365;47.464;18.976;2023-02-22T01:18:25;99790.25;;;9.11;64.60
65666;BME280;52365;47.464;18.976;2023-02-22T01:19:01;99779.69;;;9.25;64.27
65666;BME280;52365;47.464;18.976;2023-02-22T01:19:38;99783.00;;;9.39;63.89
65666;BME280;52365;47.464;18.976;2023-02-22T01:20:17;99784.72;;;9.54;63.29
65666;BME280;52365;47.464;18.976;2023-02-22T01:20:53;99788.16;;;9.73;62.63
65666;BME280;52365;47.464;18.976;2023-02-22T01:21:29;99788.94;;;9.24;63.04
65666;BME280;52365;47.464;18.976;2023-02-22T01:22:05;99790.22;;;9.01;64.20
65666;BME280;52365;47.464;18.976;2023-02-22T01:22:45;99793.59;;;8.93;64.66
65666;BME280;52365;47.464;18.976;2023-02-22T01:23:21;99788.72;;;8.69;65.20
65666;BME280;52365;47.464;18.976;2023-02-22T01:23:57;99786.19;;;8.75;65.56
65666;BME280;52365;47.464;18.976;2023-02-22T01:24:33;99789.25;;;8.95;65.20
65666;BME280;52365;47.464;18.976;2023-02-22T01:25:11;99786.75;;;9.32;64.24
65666;BME280;52365;47.464;18.976;2023-02-22T01:25:50;99790.91;;;9.33;63.54
65666;BME280;52365;47.464;18.976;2023-02-22T01:26:26;99797.00;;;9.24;63.64
65666;BME280;52365;47.464;18.976;2023-02-22T01:27:02;99795.19;;;9.21;63.74
65666;BME280;52365;47.464;18.976;2023-02-22T01:27:38;99787.06;;;9.03;64.20
65666;BME280;52365;47.464;18.976;2023-02-22T01:28:15;99796.53;;;8.86;64.72
65666;BME280;52365;47.464;18.976;2023-02-22T01:28:52;99793.16;;;8.94;65.16
65666;BME280;52365;47.464;18.976;2023-02-22T01:29:28;99791.91;;;8.86;65.07
65666;BME280;52365;47.464;18.976;2023-02-22T01:30:06;99787.81;;;8.72;65.22
65666;BME280;52365;47.464;18.976;2023-02-22T01:30:43;99794.63;;;8.64;65.66
65666;BME280;52365;47.464;18.976;2023-02-22T01:31:19;99786.22;;;8.53;66.22
65666;BME280;52365;47.464;18.976;2023-02-22T01:31:55;99788.09;;;8.65;66.34
65666;BME280;52365;47.464;18.976;2023-02-22T01:32:31;99785.88;;;8.73;66.07
65666;BME280;52365;47.464;18.976;2023-02-22T01:33:08;99789.94;;;8.77;65.99
65666;BME280;52365;47.464;18.976;2023-02-22T01:33:44;99789.94;;;8.77;65.81
65666;BME280;52365;47.464;18.976;2023-02-22T01:34:22;99795.19;;;8.81;65.28
65666;BME280;52365;47.464;18.976;2023-02-22T01:34:58;99782.47;;;8.81;65.39
65666;BME280;52365;47.464;18.976;2023-02-22T01:35:36;99785.25;;;9.00;64.80
65666;BME280;52365;47.464;18.976;2023-02-22T01:36:16;99784.66;;;8.96;64.65
65666;BME280;52365;47.464;18.976;2023-02-22T01:36:53;99786.03;;;9.00;64.60
65666;BME280;52365;47.464;18.976;2023-02-22T01:37:32;99785.53;;;8.93;64.78
65666;BME280;52365;47.464;18.976;2023-02-22T01:38:09;99781.78;;;8.90;64.87
65666;BME280;52365;47.464;18.976;2023-02-22T01:38:45;99784.03;;;8.92;64.72
65666;BME280;52365;47.464;18.976;2023-02-22T01:39:21;99791.12;;;8.76;64.87
65666;BME280;52365;47.464;18.976;2023-02-22T01:39:57;99788.06;;;8.87;64.93
65666;BME280;52365;47.464;18.976;2023-02-22T01:40:36;99787.09;;;9.12;64.38
65666;BME280;52365;47.464;18.976;2023-02-22T01:41:12;99782.63;;;9.09;64.14
65666;BME280;52365;47.464;18.976;2023-02-22T01:41:49;99782.19;;;8.79;64.54
65666;BME280;52365;47.464;18.976;2023-02-22T01:42:28;99781.47;;;8.57;65.37
65666;BME280;52365;47.464;18.976;2023-02-22T01:43:25;99779.19;;;8.55;65.77
65666;BME280;52365;47.464;18.976;2023-02-22T01:44:26;99786.47;;;8.46;66.38
65666;BME280;52365;47.464;18.976;2023-02-22T01:46:23;99782.34;;;8.54;65.83
65666;BME280;52365;47.464;18.976;2023-02-22T01:47:01;99783.78;;;8.46;65.88
65666;BME280;52365;47.464;18.976;2023-02-22T01:47:38;99777.38;;;8.30;66.58
65666;BME280;52365;47.464;18.976;2023-02-22T01:48:19;99782.19;;;8.36;66.49
65666;BME280;52365;47.464;18.976;2023-02-22T01:49:02;99775.38;;;8.22;66.94
65666;BME280;52365;47.464;18.976;2023-02-22T01:49:44;99777.06;;;8.28;66.98
65666;BME280;52365;47.464;18.976;2023-02-22T01:50:21;99773.94;;;8.30;66.94
65666;BME280;52365;47.464;18.976;2023-02-22T01:51:01;99782.53;;;8.25;67.01
65666;BME280;52365;47.464;18.976;2023-02-22T01:51:41;99774.69;;;8.30;67.01
65666;BME280;52365;47.464;18.976;2023-02-22T01:52:19;99774.03;;;8.39;66.58
65666;BME280;52365;47.464;18.976;2023-02-22T01:52:56;99780.16;;;8.40;66.38
65666;BME280;52365;47.464;18.976;2023-02-22T01:53:40;99773.50;;;8.31;66.51
65666;BME280;52365;47.464;18.976;2023-02-22T01:54:31;99773.37;;;8.35;66.48
65666;BME280;52365;47.464;18.976;2023-02-22T01:55:08;99779.28;;;8.43;66.42
65666;BME280;52365;47.464;18.976;2023-02-22T01:55:46;99777.34;;;8.43;66.51
65666;BME280;52365;47.464;18.976;2023-02-22T01:56:24;99777.84;;;8.51;66.21
65666;BME280;52365;47.464;18.976;2023-02-22T01:57:40;99778.25;;;8.27;66.56
65666;BME280;52365;47.464;18.976;2023-02-22T01:58:17;99775.38;;;8.22;66.99
65666;BME280;52365;47.464;18.976;2023-02-22T01:58:58;99778.56;;;8.29;66.98
65666;BME280;52365;47.464;18.976;2023-02-22T01:59:39;99780.22;;;8.49;66.42
65666;BME280;52365;47.464;18.976;2023-02-22T02:00:19;99788.22;;;8.62;65.95
65666;BME280;52365;47.464;18.976;2023-02-22T02:00:56;99780.28;;;8.58;65.71
65666;BME280;52365;47.464;18.976;2023-02-22T02:01:34;99773.81;;;8.33;66.07
65666;BME280;52365;47.464;18.976;2023-02-22T02:02:12;99768.06;;;8.22;66.58
65666;BME280;52365;47.464;18.976;2023-02-22T02:02:57;99773.50;;;8.31;66.79
65666;BME280;52365;47.464;18.976;2023-02-22T02:03:36;99773.19;;;8.29;66.49
65666;BME280;52365;47.464;18.976;2023-02-22T02:04:18;99785.94;;;8.38;66.44
65666;BME280;52365;47.464;18.976;2023-02-22T02:04:56;99778.09;;;8.44;65.95
65666;BME280;52365;47.464;18.976;2023-02-22T02:05:33;99775.41;;;8.44;66.15
65666;BME280;52365;47.464;18.976;2023-02-22T02:06:13;99773.19;;;8.29;66.52
65666;BME280;52365;47.464;18.976;2023-02-22T02:06:51;99769.69;;;8.20;67.12
65666;BME280;52365;47.464;18.976;2023-02-22T02:07:27;99769.94;;;8.13;67.52
65666;BME280;52365;47.464;18.976;2023-02-22T02:08:20;99772.94;;;8.15;67.58
65666;BME280;52365;47.464;18.976;2023-02-22T02:09:12;99769.44;;;8.05;67.79
65666;BME280;52365;47.464;18.976;2023-02-22T02:10:02;99766.19;;;8.10;67.93
65666;BME280;52365;47.464;18.976;2023-02-22T02:10:40;99770.81;;;8.10;67.95
65666;BME280;52365;47.464;18.976;2023-02-22T02:11:21;99777.25;;;8.12;67.71
65666;BME280;52365;47.464;18.976;2023-02-22T02:12:00;99766.88;;;8.23;67.55
65666;BME280;52365;47.464;18.976;2023-02-22T02:12:37;99775.16;;;8.16;67.51
65666;BME280;52365;47.464;18.976;2023-02-22T02:13:14;99775.13;;;8.29;67.23
65666;BME280;52365;47.464;18.976;2023-02-22T02:13:52;99770.56;;;8.17;67.33
65666;BME280;52365;47.464;18.976;2023-02-22T02:14:32;99769.72;;;8.07;67.66
65666;BME280;52365;47.464;18.976;2023-02-22T02:15:29;99774.06;;;8.04;67.89
65666;BME280;52365;47.464;18.976;2023-02-22T02:16:06;99763.69;;;8.16;67.82
65666;BME280;52365;47.464;18.976;2023-02-22T02:16:45;99768.06;;;8.22;67.40
65666;BME280;52365;47.464;18.976;2023-02-22T02:17:22;99772.75;;;8.31;67.17
65666;BME280;52365;47.464;18.976;2023-02-22T02:18:02;99771.38;;;8.26;67.11
65666;BME280;52365;47.464;18.976;2023-02-22T02:18:38;99769.62;;;8.11;67.73
65666;BME280;52365;47.464;18.976;2023-02-22T02:20:07;99763.56;;;8.19;67.77
65666;BME280;52365;47.464;18.976;2023-02-22T02:22:56;99767.94;;;8.04;68.30
65666;BME280;52365;47.464;18.976;2023-02-22T02:24:52;99768.44;;;8.12;67.97
65666;BME280;52365;47.464;18.976;2023-02-22T02:27:12;99761.97;;;8.22;68.03
65666;BME280;52365;47.464;18.976;2023-02-22T02:31:11;99771.97;;;8.43;67.51
65666;BME280;52365;47.464;18.976;2023-02-22T02:32:09;99777.47;;;8.40;67.58
65666;BME280;52365;47.464;18.976;2023-02-22T02:33:14;99772.28;;;8.45;67.44
65666;BME280;52365;47.464;18.976;2023-02-22T02:36:07;99776.72;;;8.61;67.18
65666;BME280;52365;47.464;18.976;2023-02-22T02:37:10;99777.19;;;8.69;66.91
65666;BME280;52365;47.464;18.976;2023-02-22T02:38:09;99779.69;;;8.63;66.95
65666;BME280;52365;47.464;18.976;2023-02-22T02:38:56;99781.81;;;8.68;66.98
65666;BME280;52365;47.464;18.976;2023-02-22T02:41:29;99771.22;;;8.43;67.70
65666;BME280;52365;47.464;18.976;2023-02-22T02:42:09;99771.47;;;8.57;67.76
65666;BME280;52365;47.464;18.976;2023-02-22T02:44:57;99774.09;;;8.48;68.00
65666;BME280;52365;47.464;18.976;2023-02-22T02:45:40;99781.59;;;8.53;67.89
65666;BME280;52365;47.464;18.976;2023-02-22T02:46:30;99780.50;;;8.51;67.89
65666;BME280;52365;47.464;18.976;2023-02-22T02:47:13;99771.28;;;8.52;67.93
65666;BME280;52365;47.464;18.976;2023-02-22T02:47:55;99781.41;;;8.48;67.97
65666;BME280;52365;47.464;18.976;2023-02-22T02:48:34;99772.97;;;8.58;67.90
65666;BME280;52365;47.464;18.976;2023-02-22T02:49:16;99786.56;;;8.64;67.72
65666;BME280;52365;47.464;18.976;2023-02-22T02:50:02;99782.44;;;8.72;67.44
65666;BME280;52365;47.464;18.976;2023-02-22T02:50:44;99771.47;;;8.57;67.66
65666;BME280;52365;47.464;18.976;2023-02-22T02:51:24;99779.69;;;8.63;67.72
65666;BME280;52365;47.464;18.976;2023-02-22T02:52:04;99781.94;;;8.65;67.68
65666;BME280;52365;47.464;18.976;2023-02-22T02:52:41;99780.06;;;8.74;67.47
65666;BME280;52365;47.464;18.976;2023-02-22T02:53:26;99771.56;;;8.76;67.39
65666;BME280;52365;47.464;18.976;2023-02-22T02:54:06;99776.06;;;8.79;67.23
65666;BME280;52365;47.464;18.976;2023-02-22T02:54:45;99780.37;;;8.76;67.33
65666;BME280;52365;47.464;18.976;2023-02-22T02:55:22;99784.25;;;8.75;67.33
65666;BME280;52365;47.464;18.976;2023-02-22T02:55:59;99779.78;;;8.81;67.30
65666;BME280;52365;47.464;18.976;2023-02-22T02:56:35;99772.69;;;8.88;67.12
65666;BME280;52365;47.464;18.976;2023-02-22T02:57:11;99781.06;;;8.99;66.74
65666;BME280;52365;47.464;18.976;2023-02-22T02:57:47;99777.19;;;9.00;66.50
65666;BME280;52365;47.464;18.976;2023-02-22T02:58:23;99777.34;;;8.96;66.54
65666;BME280;52365;47.464;18.976;2023-02-22T02:58:59;99778.13;;;9.06;66.48
65666;BME280;52365;47.464;18.976;2023-02-22T02:59:36;99770.34;;;9.08;66.33
65666;BME280;52365;47.464;18.976;2023-02-22T03:00:17;99782.34;;;9.16;66.11
65666;BME280;52365;47.464;18.976;2023-02-22T03:01:00;99771.31;;;9.23;65.83
65666;BME280;52365;47.464;18.976;2023-02-22T03:02:08;99774.19;;;9.38;65.50
65666;BME280;52365;47.464;18.976;2023-02-22T03:04:04;99772.50;;;9.13;65.70
65666;BME280;52365;47.464;18.976;2023-02-22T03:08:08;99772.34;;;9.17;66.00
65666;BME280;52365;47.464;18.976;2023-02-22T03:11:41;99770.72;;;9.19;65.76
65666;BME280;52365;47.464;18.976;2023-02-22T03:12:37;99768.41;;;9.08;66.07
65666;BME280;52365;47.464;18.976;2023-02-22T03:13:37;99771.81;;;9.00;66.63
65666;BME280;52365;47.464;18.976;2023-02-22T03:14:33;99774.38;;;9.03;66.52
65666;BME280;52365;47.464;18.976;2023-02-22T03:17:10;99774.66;;;9.37;65.58
65666;BME280;52365;47.464;18.976;2023-02-22T03:18:06;99773.78;;;9.40;65.49
65666;BME280;52365;47.464;18.976;2023-02-22T03:19:39;99776.56;;;9.27;65.50
65666;BME280;52365;47.464;18.976;2023-02-22T03:21:04;99774.63;;;9.27;65.59
65666;BME280;52365;47.464;18.976;2023-02-22T03:21:56;99777.94;;;9.31;65.47
65666;BME280;52365;47.464;18.976;2023-02-22T03:23:09;99779.69;;;9.25;65.61
65666;BME280;52365;47.464;18.976;2023-02-22T03:24:51;99775.25;;;9.41;65.18
65666;BME280;52365;47.464;18.976;2023-02-22T03:25:38;99777.22;;;9.40;65.05
65666;BME280;52365;47.464;18.976;2023-02-22T03:26:21;99767.31;;;9.37;65.13
65666;BME280;52365;47.464;18.976;2023-02-22T03:27:11;99772.09;;;9.33;65.30
65666;BME280;52365;47.464;18.976;2023-02-22T03:27:52;99770.00;;;9.37;65.68
65666;BME280;52365;47.464;18.976;2023-02-22T03:28:29;99770.16;;;9.33;65.59
65666;BME280;52365;47.464;18.976;2023-02-22T03:29:10;99774.81;;;9.42;65.30
65666;BME280;52365;47.464;18.976;2023-02-22T03:29:50;99769.75;;;9.44;65.19
65666;BME280;52365;47.464;18.976;2023-02-22T03:30:41;99775.25;;;9.41;65.15
65666;BME280;52365;47.464;18.976;2023-02-22T03:31:23;99777.94;;;9.31;65.87
65666;BME280;52365;47.464;18.976;2023-02-22T03:32:03;99768.97;;;9.44;65.76
65666;BME280;52365;47.464;18.976;2023-02-22T03:32:43;99776.78;;;9.51;65.29
65666;BME280;52365;47.464;18.976;2023-02-22T03:33:29;99774.81;;;9.51;65.07
65666;BME280;52365;47.464;18.976;2023-02-22T03:34:18;99780.94;;;9.43;65.36
65666;BME280;52365;47.464;18.976;2023-02-22T03:35:12;99771.25;;;9.45;65.44
65666;BME280;52365;47.464;18.976;2023-02-22T03:35:54;99768.56;;;9.54;65.40
65666;BME280;52365;47.464;18.976;2023-02-22T03:36:37;99775.88;;;9.54;65.30
65666;BME280;52365;47.464;18.976;2023-02-22T03:37:19;99770.19;;;9.52;65.40
65666;BME280;52365;47.464;18.976;2023-02-22T03:37:59;99777.69;;;9.57;65.31
65666;BME280;52365;47.464;18.976;2023-02-22T03:38:38;99778.28;;;9.61;65.19
65666;BME280;52365;47.464;18.976;2023-02-22T03:39:16;99776.19;;;9.65;65.14
65666;BME280;52365;47.464;18.976;2023-02-22T03:39:55;99780.22;;;9.70;65.03
65666;BME280;52365;47.464;18.976;2023-02-22T03:40:37;99769.78;;;9.63;65.11
65666;BME280;52365;47.464;18.976;2023-02-22T03:41:18;99777.69;;;9.57;65.21
65666;BME280;52365;47.464;18.976;2023-02-22T03:42:10;99779.50;;;9.69;65.12
65666;BME280;52365;47.464;18.976;2023-02-22T03:42:52;99772.44;;;9.53;65.29
65666;BME280;52365;47.464;18.976;2023-02-22T03:43:35;99772.13;;;9.42;65.97
65666;BME280;52365;47.464;18.976;2023-02-22T03:44:15;99774.69;;;9.55;65.82
65666;BME280;52365;47.464;18.976;2023-02-22T03:44:57;99772.44;;;9.53;65.87
65666;BME280;52365;47.464;18.976;2023-02-22T03:45:36;99776.03;;;9.59;65.80
65666;BME280;52365;47.464;18.976;2023-02-22T03:46:15;99773.81;;;9.58;65.87
65666;BME280;52365;47.464;18.976;2023-02-22T03:46:54;99777.69;;;9.57;65.77
65666;BME280;52365;47.464;18.976;2023-02-22T03:47:54;99775.03;;;9.66;65.83
65666;BME280;52365;47.464;18.976;2023-02-22T03:48:41;99779.16;;;9.49;66.18
65666;BME280;52365;47.464;18.976;2023-02-22T03:49:57;99779.91;;;9.49;66.42
65666;BME280;52365;47.464;18.976;2023-02-22T03:50:35;99789.47;;;9.50;66.50
65666;BME280;52365;47.464;18.976;2023-02-22T03:51:13;99780.53;;;9.63;66.39
65666;BME280;52365;47.464;18.976;2023-02-22T03:51:50;99778.16;;;9.74;66.07
65666;BME280;52365;47.464;18.976;2023-02-22T03:52:27;99790.25;;;9.69;66.16
65666;BME280;52365;47.464;18.976;2023-02-22T03:53:03;99784.12;;;9.78;65.96
65666;BME280;52365;47.464;18.976;2023-02-22T03:53:41;99786.38;;;9.70;66.14
65666;BME280;52365;47.464;18.976;2023-02-22T03:54:19;99781.75;;;9.80;66.01
65666;BME280;52365;47.464;18.976;2023-02-22T03:54:56;99782.19;;;9.78;65.90
65666;BME280;52365;47.464;18.976;2023-02-22T03:55:32;99783.25;;;9.81;65.97
65666;BME280;52365;47.464;18.976;2023-02-22T03:56:12;99786.56;;;9.85;65.87
65666;BME280;52365;47.464;18.976;2023-02-22T03:56:56;99786.69;;;10.00;65.65
65666;BME280;52365;47.464;18.976;2023-02-22T03:57:36;99788.78;;;10.05;65.31
65666;BME280;52365;47.464;18.976;2023-02-22T03:58:14;99785.81;;;10.03;65.20
65666;BME280;52365;47.464;18.976;2023-02-22T03:58:50;99794.50;;;9.98;65.46
65666;BME280;52365;47.464;18.976;2023-02-22T03:59:27;99790.75;;;10.14;65.05
65666;BME280;52365;47.464;18.976;2023-02-22T04:00:08;99781.31;;;10.18;64.83